Terminal Aerodrome Forecast
Issued by NWS Twin Cities, MN

Home | Current Version | Previous Version | Graphics & Text | Print | Product List | Glossary On
Versions: 1 2 3 4 5 6 7 8 9 10 11 12 13 14 15
000
FTUS43 KMPX 191743
TAFEAU
TAF
KEAU 191743Z 1918/2018 13007KT P6SM SKC
     FM191900 14012KT P6SM SCT050
     FM201000 14012KT P6SM -SHRA VCTS BKN030CB
     FM201200 15011KT P6SM OVC015=

USA.gov is the U.S. government's official web portal to all federal, state and local government web resources and services.